Hawks, Michigan
Current Conditions -  °F | °C
As of 6:25 PM on Tuesday 21 Oct 2014 (Local Time) from KPZQ Reporting Station
Clear Clear  
Wind Chill:   Ceiling: Unl
Heat Index:   Visibility: 10mi
Dew Point:   Wind: 6mph
Humidity: 70%   Direction: NA
Pressure: 30.25"   Gusts: NA
Location:  45.3°N, 83.89°W
Report Text: KPZQ 212225Z AUTO 00005KT 10SM CLR 05/00 A3025 RMK AO2
Loading
Personal Weather Stations






























Interactive Weather Map
Tropical Storm Tracking
New forecast layout! Learn more

10-Day Weather Forecast

Advertisements
Track Severe Weather on mobile